sensor_id;sensor_type;location;lat;lon;timestamp;P1;durP1;ratioP1;P2;durP2;ratioP2
75148;SDS011;63724;47.470;19.166;2023-01-25T00:00:54;40.30;;;20.73;;
75148;SDS011;63724;47.470;19.166;2023-01-25T00:03:56;44.80;;;19.53;;
75148;SDS011;63724;47.470;19.166;2023-01-25T00:06:59;40.47;;;20.05;;
75148;SDS011;63724;47.470;19.166;2023-01-25T00:10:02;36.03;;;18.23;;
75148;SDS011;63724;47.470;19.166;2023-01-25T00:13:04;32.15;;;17.30;;
75148;SDS011;63724;47.470;19.166;2023-01-25T00:16:06;34.93;;;17.17;;
75148;SDS011;63724;47.470;19.166;2023-01-25T00:19:09;26.92;;;13.80;;
75148;SDS011;63724;47.470;19.166;2023-01-25T00:22:12;31.48;;;15.95;;
75148;SDS011;63724;47.470;19.166;2023-01-25T00:25:14;32.65;;;15.23;;
75148;SDS011;63724;47.470;19.166;2023-01-25T00:28:17;30.83;;;14.98;;
75148;SDS011;63724;47.470;19.166;2023-01-25T00:34:36;29.23;;;12.77;;
75148;SDS011;63724;47.470;19.166;2023-01-25T00:37:45;28.20;;;13.90;;
75148;SDS011;63724;47.470;19.166;2023-01-25T00:40:51;23.40;;;12.43;;
75148;SDS011;63724;47.470;19.166;2023-01-25T00:43:54;25.85;;;12.68;;
75148;SDS011;63724;47.470;19.166;2023-01-25T00:46:56;29.53;;;15.13;;
75148;SDS011;63724;47.470;19.166;2023-01-25T00:49:58;28.35;;;13.85;;
75148;SDS011;63724;47.470;19.166;2023-01-25T00:53:01;29.60;;;15.38;;
75148;SDS011;63724;47.470;19.166;2023-01-25T00:56:03;28.17;;;14.07;;
75148;SDS011;63724;47.470;19.166;2023-01-25T00:59:06;22.40;;;11.82;;
75148;SDS011;63724;47.470;19.166;2023-01-25T01:02:09;30.80;;;13.87;;
75148;SDS011;63724;47.470;19.166;2023-01-25T01:05:12;26.70;;;13.80;;
75148;SDS011;63724;47.470;19.166;2023-01-25T01:08:15;27.85;;;13.10;;
75148;SDS011;63724;47.470;19.166;2023-01-25T01:11:18;28.83;;;13.48;;
75148;SDS011;63724;47.470;19.166;2023-01-25T01:14:22;31.95;;;12.70;;
75148;SDS011;63724;47.470;19.166;2023-01-25T01:17:24;23.03;;;11.67;;
75148;SDS011;63724;47.470;19.166;2023-01-25T01:20:27;22.80;;;12.60;;
75148;SDS011;63724;47.470;19.166;2023-01-25T01:23:30;29.02;;;13.65;;
75148;SDS011;63724;47.470;19.166;2023-01-25T01:26:32;25.38;;;12.50;;
75148;SDS011;63724;47.470;19.166;2023-01-25T01:29:35;26.55;;;12.43;;
75148;SDS011;63724;47.470;19.166;2023-01-25T01:32:38;25.53;;;12.90;;
75148;SDS011;63724;47.470;19.166;2023-01-25T01:35:40;24.52;;;11.95;;
75148;SDS011;63724;47.470;19.166;2023-01-25T01:38:43;25.35;;;13.20;;
75148;SDS011;63724;47.470;19.166;2023-01-25T01:41:45;28.00;;;12.75;;
75148;SDS011;63724;47.470;19.166;2023-01-25T01:44:51;28.63;;;12.43;;
75148;SDS011;63724;47.470;19.166;2023-01-25T01:47:57;25.07;;;12.03;;
75148;SDS011;63724;47.470;19.166;2023-01-25T01:51:01;23.48;;;13.10;;
75148;SDS011;63724;47.470;19.166;2023-01-25T01:54:48;24.27;;;12.68;;
75148;SDS011;63724;47.470;19.166;2023-01-25T01:57:42;22.98;;;12.32;;
75148;SDS011;63724;47.470;19.166;2023-01-25T02:00:47;23.40;;;12.23;;
75148;SDS011;63724;47.470;19.166;2023-01-25T02:03:50;25.10;;;12.97;;
75148;SDS011;63724;47.470;19.166;2023-01-25T02:07:01;29.08;;;12.75;;
75148;SDS011;63724;47.470;19.166;2023-01-25T02:10:08;24.05;;;12.27;;
75148;SDS011;63724;47.470;19.166;2023-01-25T02:13:15;24.42;;;11.95;;
75148;SDS011;63724;47.470;19.166;2023-01-25T02:16:20;23.42;;;12.95;;
75148;SDS011;63724;47.470;19.166;2023-01-25T02:26:30;25.05;;;12.70;;
75148;SDS011;63724;47.470;19.166;2023-01-25T02:29:32;25.20;;;12.57;;
75148;SDS011;63724;47.470;19.166;2023-01-25T02:32:35;24.37;;;12.47;;
75148;SDS011;63724;47.470;19.166;2023-01-25T02:35:48;22.40;;;10.70;;
75148;SDS011;63724;47.470;19.166;2023-01-25T02:39:13;27.63;;;11.88;;
75148;SDS011;63724;47.470;19.166;2023-01-25T02:42:20;22.55;;;11.55;;
75148;SDS011;63724;47.470;19.166;2023-01-25T02:45:22;27.40;;;11.70;;
75148;SDS011;63724;47.470;19.166;2023-01-25T02:48:26;30.00;;;12.87;;
75148;SDS011;63724;47.470;19.166;2023-01-25T02:51:30;31.48;;;13.65;;
75148;SDS011;63724;47.470;19.166;2023-01-25T02:54:33;30.67;;;13.55;;
75148;SDS011;63724;47.470;19.166;2023-01-25T02:57:39;32.78;;;12.57;;
75148;SDS011;63724;47.470;19.166;2023-01-25T03:00:42;30.63;;;13.07;;
75148;SDS011;63724;47.470;19.166;2023-01-25T03:03:44;29.90;;;12.70;;
75148;SDS011;63724;47.470;19.166;2023-01-25T03:06:47;26.48;;;12.75;;
75148;SDS011;63724;47.470;19.166;2023-01-25T03:09:50;33.70;;;13.60;;
75148;SDS011;63724;47.470;19.166;2023-01-25T03:12:53;29.88;;;13.50;;
75148;SDS011;63724;47.470;19.166;2023-01-25T03:16:00;36.93;;;13.87;;
75148;SDS011;63724;47.470;19.166;2023-01-25T03:19:05;52.70;;;16.70;;
75148;SDS011;63724;47.470;19.166;2023-01-25T03:22:07;58.83;;;17.80;;
75148;SDS011;63724;47.470;19.166;2023-01-25T03:25:11;53.17;;;17.35;;
75148;SDS011;63724;47.470;19.166;2023-01-25T03:28:22;56.05;;;17.08;;
75148;SDS011;63724;47.470;19.166;2023-01-25T03:31:24;45.07;;;17.07;;
75148;SDS011;63724;47.470;19.166;2023-01-25T03:34:27;49.75;;;18.92;;
75148;SDS011;63724;47.470;19.166;2023-01-25T03:37:31;39.55;;;17.52;;
75148;SDS011;63724;47.470;19.166;2023-01-25T03:40:35;47.58;;;19.27;;
75148;SDS011;63724;47.470;19.166;2023-01-25T03:43:37;50.50;;;17.37;;
75148;SDS011;63724;47.470;19.166;2023-01-25T03:46:40;44.17;;;17.63;;
75148;SDS011;63724;47.470;19.166;2023-01-25T03:49:43;38.45;;;15.23;;
75148;SDS011;63724;47.470;19.166;2023-01-25T03:52:48;37.55;;;16.50;;
75148;SDS011;63724;47.470;19.166;2023-01-25T03:56:06;28.40;;;13.77;;
75148;SDS011;63724;47.470;19.166;2023-01-25T03:59:10;27.47;;;14.17;;
75148;SDS011;63724;47.470;19.166;2023-01-25T04:02:13;36.20;;;15.77;;
75148;SDS011;63724;47.470;19.166;2023-01-25T04:05:17;31.88;;;14.45;;
75148;SDS011;63724;47.470;19.166;2023-01-25T04:08:20;31.25;;;15.93;;
75148;SDS011;63724;47.470;19.166;2023-01-25T04:11:23;25.60;;;13.47;;
75148;SDS011;63724;47.470;19.166;2023-01-25T04:14:25;26.40;;;14.23;;
75148;SDS011;63724;47.470;19.166;2023-01-25T04:17:47;26.33;;;14.75;;
75148;SDS011;63724;47.470;19.166;2023-01-25T04:20:57;34.63;;;14.90;;
75148;SDS011;63724;47.470;19.166;2023-01-25T04:24:00;24.15;;;13.60;;
75148;SDS011;63724;47.470;19.166;2023-01-25T04:27:04;22.90;;;13.43;;
75148;SDS011;63724;47.470;19.166;2023-01-25T04:30:13;25.58;;;12.13;;
75148;SDS011;63724;47.470;19.166;2023-01-25T04:33:17;31.75;;;13.82;;
75148;SDS011;63724;47.470;19.166;2023-01-25T04:36:20;26.45;;;12.55;;
75148;SDS011;63724;47.470;19.166;2023-01-25T04:39:22;22.65;;;11.48;;
75148;SDS011;63724;47.470;19.166;2023-01-25T04:42:26;26.33;;;12.60;;
75148;SDS011;63724;47.470;19.166;2023-01-25T04:45:30;24.00;;;12.73;;
75148;SDS011;63724;47.470;19.166;2023-01-25T04:48:36;25.77;;;13.55;;
75148;SDS011;63724;47.470;19.166;2023-01-25T04:51:40;27.10;;;13.20;;
75148;SDS011;63724;47.470;19.166;2023-01-25T04:54:43;29.73;;;12.32;;
75148;SDS011;63724;47.470;19.166;2023-01-25T04:57:49;21.20;;;10.67;;
75148;SDS011;63724;47.470;19.166;2023-01-25T05:00:52;23.60;;;11.77;;
75148;SDS011;63724;47.470;19.166;2023-01-25T05:03:56;19.35;;;10.77;;
75148;SDS011;63724;47.470;19.166;2023-01-25T05:07:12;21.02;;;10.32;;
75148;SDS011;63724;47.470;19.166;2023-01-25T05:10:15;22.67;;;9.45;;
75148;SDS011;63724;47.470;19.166;2023-01-25T05:13:37;25.37;;;10.40;;
75148;SDS011;63724;47.470;19.166;2023-01-25T05:17:06;18.95;;;10.10;;
75148;SDS011;63724;47.470;19.166;2023-01-25T05:20:10;20.55;;;9.02;;
75148;SDS011;63724;47.470;19.166;2023-01-25T05:23:13;19.45;;;9.88;;
75148;SDS011;63724;47.470;19.166;2023-01-25T05:26:18;20.20;;;9.37;;
75148;SDS011;63724;47.470;19.166;2023-01-25T05:29:42;15.20;;;8.27;;
75148;SDS011;63724;47.470;19.166;2023-01-25T05:32:49;19.45;;;9.05;;
75148;SDS011;63724;47.470;19.166;2023-01-25T05:35:51;18.52;;;8.82;;
75148;SDS011;63724;47.470;19.166;2023-01-25T05:38:58;19.23;;;9.38;;
75148;SDS011;63724;47.470;19.166;2023-01-25T05:42:02;21.57;;;9.00;;
75148;SDS011;63724;47.470;19.166;2023-01-25T05:45:04;19.23;;;9.07;;
75148;SDS011;63724;47.470;19.166;2023-01-25T05:48:09;21.77;;;8.70;;
75148;SDS011;63724;47.470;19.166;2023-01-25T05:51:12;19.55;;;8.75;;
75148;SDS011;63724;47.470;19.166;2023-01-25T05:54:15;23.27;;;9.05;;
75148;SDS011;63724;47.470;19.166;2023-01-25T05:57:28;22.43;;;9.50;;
75148;SDS011;63724;47.470;19.166;2023-01-25T06:00:32;20.58;;;9.82;;
75148;SDS011;63724;47.470;19.166;2023-01-25T06:03:39;21.95;;;11.07;;
75148;SDS011;63724;47.470;19.166;2023-01-25T06:06:42;25.30;;;9.90;;
75148;SDS011;63724;47.470;19.166;2023-01-25T06:09:44;22.45;;;9.88;;
75148;SDS011;63724;47.470;19.166;2023-01-25T06:12:47;17.77;;;8.37;;
75148;SDS011;63724;47.470;19.166;2023-01-25T06:15:55;23.17;;;9.63;;
75148;SDS011;63724;47.470;19.166;2023-01-25T06:19:21;21.92;;;9.15;;
75148;SDS011;63724;47.470;19.166;2023-01-25T06:22:42;23.83;;;10.65;;
75148;SDS011;63724;47.470;19.166;2023-01-25T06:25:44;23.75;;;11.07;;
75148;SDS011;63724;47.470;19.166;2023-01-25T06:29:04;22.93;;;10.77;;
75148;SDS011;63724;47.470;19.166;2023-01-25T06:32:07;26.92;;;11.52;;
75148;SDS011;63724;47.470;19.166;2023-01-25T06:35:10;26.10;;;11.63;;
75148;SDS011;63724;47.470;19.166;2023-01-25T06:38:13;32.85;;;12.60;;
75148;SDS011;63724;47.470;19.166;2023-01-25T06:41:18;24.42;;;11.10;;
75148;SDS011;63724;47.470;19.166;2023-01-25T06:44:22;22.50;;;9.97;;
75148;SDS011;63724;47.470;19.166;2023-01-25T06:47:24;17.38;;;8.68;;
75148;SDS011;63724;47.470;19.166;2023-01-25T06:50:27;21.25;;;9.48;;
75148;SDS011;63724;47.470;19.166;2023-01-25T06:53:30;18.13;;;8.77;;
75148;SDS011;63724;47.470;19.166;2023-01-25T06:56:34;18.10;;;8.27;;
75148;SDS011;63724;47.470;19.166;2023-01-25T06:59:36;19.23;;;9.10;;
75148;SDS011;63724;47.470;19.166;2023-01-25T07:02:42;21.10;;;10.40;;
75148;SDS011;63724;47.470;19.166;2023-01-25T07:05:44;22.50;;;9.75;;
75148;SDS011;63724;47.470;19.166;2023-01-25T07:08:47;23.15;;;11.35;;
75148;SDS011;63724;47.470;19.166;2023-01-25T07:11:50;23.95;;;12.10;;
75148;SDS011;63724;47.470;19.166;2023-01-25T07:20:11;25.60;;;13.32;;
75148;SDS011;63724;47.470;19.166;2023-01-25T07:23:13;25.80;;;12.15;;
75148;SDS011;63724;47.470;19.166;2023-01-25T07:26:17;32.55;;;13.93;;
75148;SDS011;63724;47.470;19.166;2023-01-25T07:29:24;23.27;;;11.88;;
75148;SDS011;63724;47.470;19.166;2023-01-25T07:32:27;21.87;;;11.50;;
75148;SDS011;63724;47.470;19.166;2023-01-25T07:35:30;29.30;;;12.10;;
75148;SDS011;63724;47.470;19.166;2023-01-25T07:38:33;26.88;;;12.57;;
75148;SDS011;63724;47.470;19.166;2023-01-25T07:41:37;20.52;;;11.38;;
75148;SDS011;63724;47.470;19.166;2023-01-25T07:44:40;24.45;;;11.90;;
75148;SDS011;63724;47.470;19.166;2023-01-25T07:47:46;26.17;;;11.33;;
75148;SDS011;63724;47.470;19.166;2023-01-25T07:50:48;22.10;;;11.38;;
75148;SDS011;63724;47.470;19.166;2023-01-25T07:53:55;26.90;;;12.35;;
75148;SDS011;63724;47.470;19.166;2023-01-25T07:56:58;31.65;;;12.85;;
75148;SDS011;63724;47.470;19.166;2023-01-25T08:00:00;25.52;;;12.70;;
75148;SDS011;63724;47.470;19.166;2023-01-25T08:03:13;27.27;;;12.70;;
75148;SDS011;63724;47.470;19.166;2023-01-25T08:06:16;26.65;;;13.00;;
75148;SDS011;63724;47.470;19.166;2023-01-25T08:09:19;22.10;;;12.48;;
75148;SDS011;63724;47.470;19.166;2023-01-25T08:12:22;20.98;;;10.95;;
75148;SDS011;63724;47.470;19.166;2023-01-25T08:15:24;22.10;;;11.40;;
75148;SDS011;63724;47.470;19.166;2023-01-25T08:18:26;21.90;;;10.93;;
75148;SDS011;63724;47.470;19.166;2023-01-25T08:21:30;24.63;;;11.65;;
75148;SDS011;63724;47.470;19.166;2023-01-25T08:24:34;20.92;;;10.50;;
75148;SDS011;63724;47.470;19.166;2023-01-25T08:27:36;22.92;;;12.30;;
75148;SDS011;63724;47.470;19.166;2023-01-25T08:30:39;21.77;;;11.63;;
75148;SDS011;63724;47.470;19.166;2023-01-25T08:33:57;25.67;;;10.83;;
75148;SDS011;63724;47.470;19.166;2023-01-25T08:37:00;21.50;;;11.55;;
75148;SDS011;63724;47.470;19.166;2023-01-25T08:40:02;24.05;;;11.93;;
75148;SDS011;63724;47.470;19.166;2023-01-25T08:43:05;24.75;;;11.98;;
75148;SDS011;63724;47.470;19.166;2023-01-25T08:46:07;25.63;;;12.68;;
75148;SDS011;63724;47.470;19.166;2023-01-25T08:49:10;44.63;;;19.87;;
75148;SDS011;63724;47.470;19.166;2023-01-25T08:52:12;24.80;;;10.98;;
75148;SDS011;63724;47.470;19.166;2023-01-25T08:55:15;21.50;;;11.57;;
75148;SDS011;63724;47.470;19.166;2023-01-25T08:58:18;19.92;;;9.95;;
75148;SDS011;63724;47.470;19.166;2023-01-25T09:01:22;25.27;;;12.77;;
75148;SDS011;63724;47.470;19.166;2023-01-25T09:04:25;24.80;;;12.57;;
75148;SDS011;63724;47.470;19.166;2023-01-25T09:07:29;26.10;;;12.57;;
75148;SDS011;63724;47.470;19.166;2023-01-25T09:10:33;26.83;;;12.10;;
75148;SDS011;63724;47.470;19.166;2023-01-25T09:13:36;24.10;;;12.30;;
75148;SDS011;63724;47.470;19.166;2023-01-25T09:16:38;27.38;;;12.63;;
75148;SDS011;63724;47.470;19.166;2023-01-25T09:19:40;22.37;;;11.47;;
75148;SDS011;63724;47.470;19.166;2023-01-25T09:22:43;27.58;;;12.45;;
75148;SDS011;63724;47.470;19.166;2023-01-25T09:25:45;25.33;;;12.27;;
75148;SDS011;63724;47.470;19.166;2023-01-25T09:28:49;24.80;;;10.95;;
75148;SDS011;63724;47.470;19.166;2023-01-25T09:31:52;23.88;;;11.48;;
75148;SDS011;63724;47.470;19.166;2023-01-25T09:35:11;19.50;;;10.93;;
75148;SDS011;63724;47.470;19.166;2023-01-25T09:38:13;25.15;;;10.98;;
75148;SDS011;63724;47.470;19.166;2023-01-25T09:48:29;29.38;;;11.23;;
75148;SDS011;63724;47.470;19.166;2023-01-25T09:51:41;26.60;;;12.20;;
75148;SDS011;63724;47.470;19.166;2023-01-25T09:55:11;31.02;;;12.77;;
75148;SDS011;63724;47.470;19.166;2023-01-25T09:58:19;24.27;;;11.60;;
75148;SDS011;63724;47.470;19.166;2023-01-25T10:04:40;29.92;;;15.07;;
75148;SDS011;63724;47.470;19.166;2023-01-25T10:07:49;19.10;;;10.07;;
75148;SDS011;63724;47.470;19.166;2023-01-25T10:11:04;25.50;;;11.35;;
75148;SDS011;63724;47.470;19.166;2023-01-25T10:14:14;22.58;;;10.63;;
75148;SDS011;63724;47.470;19.166;2023-01-25T10:20:42;22.05;;;10.43;;
75148;SDS011;63724;47.470;19.166;2023-01-25T10:27:24;20.40;;;9.82;;
75148;SDS011;63724;47.470;19.166;2023-01-25T10:30:42;16.33;;;8.18;;
75148;SDS011;63724;47.470;19.166;2023-01-25T10:34:14;14.35;;;7.38;;
75148;SDS011;63724;47.470;19.166;2023-01-25T10:37:31;14.80;;;8.13;;
75148;SDS011;63724;47.470;19.166;2023-01-25T10:40:39;18.43;;;7.30;;
75148;SDS011;63724;47.470;19.166;2023-01-25T10:43:44;14.68;;;7.10;;
75148;SDS011;63724;47.470;19.166;2023-01-25T10:50:02;17.17;;;8.43;;
75148;SDS011;63724;47.470;19.166;2023-01-25T10:53:04;14.13;;;6.90;;
75148;SDS011;63724;47.470;19.166;2023-01-25T10:59:24;13.82;;;7.43;;
75148;SDS011;63724;47.470;19.166;2023-01-25T11:05:38;17.20;;;6.80;;
75148;SDS011;63724;47.470;19.166;2023-01-25T11:12:39;10.90;;;6.17;;
75148;SDS011;63724;47.470;19.166;2023-01-25T11:15:42;12.50;;;6.18;;
75148;SDS011;63724;47.470;19.166;2023-01-25T11:18:51;11.73;;;5.80;;
75148;SDS011;63724;47.470;19.166;2023-01-25T11:21:59;11.88;;;6.20;;
75148;SDS011;63724;47.470;19.166;2023-01-25T11:28:31;11.73;;;5.90;;
75148;SDS011;63724;47.470;19.166;2023-01-25T11:31:34;12.00;;;6.40;;
75148;SDS011;63724;47.470;19.166;2023-01-25T11:34:37;14.38;;;7.47;;
75148;SDS011;63724;47.470;19.166;2023-01-25T11:41:37;14.73;;;6.10;;
75148;SDS011;63724;47.470;19.166;2023-01-25T12:18:16;12.03;;;6.03;;
75148;SDS011;63724;47.470;19.166;2023-01-25T12:21:47;13.27;;;5.88;;
75148;SDS011;63724;47.470;19.166;2023-01-25T12:24:58;11.20;;;5.80;;
75148;SDS011;63724;47.470;19.166;2023-01-25T12:31:42;14.50;;;5.95;;
75148;SDS011;63724;47.470;19.166;2023-01-25T12:52:31;11.73;;;6.32;;
75148;SDS011;63724;47.470;19.166;2023-01-25T12:55:46;13.33;;;6.93;;
75148;SDS011;63724;47.470;19.166;2023-01-25T12:58:51;12.95;;;6.63;;
75148;SDS011;63724;47.470;19.166;2023-01-25T13:05:55;12.30;;;6.25;;
75148;SDS011;63724;47.470;19.166;2023-01-25T13:12:02;12.80;;;6.60;;
75148;SDS011;63724;47.470;19.166;2023-01-25T13:15:32;15.43;;;7.05;;
75148;SDS011;63724;47.470;19.166;2023-01-25T13:18:38;12.18;;;6.28;;
75148;SDS011;63724;47.470;19.166;2023-01-25T13:21:42;15.48;;;7.30;;
75148;SDS011;63724;47.470;19.166;2023-01-25T13:31:43;13.73;;;6.97;;
75148;SDS011;63724;47.470;19.166;2023-01-25T13:38:21;14.05;;;7.68;;
75148;SDS011;63724;47.470;19.166;2023-01-25T13:41:31;14.85;;;7.30;;
75148;SDS011;63724;47.470;19.166;2023-01-25T13:44:34;15.87;;;7.30;;
75148;SDS011;63724;47.470;19.166;2023-01-25T13:47:42;16.05;;;8.07;;
75148;SDS011;63724;47.470;19.166;2023-01-25T13:51:07;19.23;;;7.93;;
75148;SDS011;63724;47.470;19.166;2023-01-25T13:54:13;17.35;;;7.88;;
75148;SDS011;63724;47.470;19.166;2023-01-25T13:57:21;15.25;;;7.53;;
75148;SDS011;63724;47.470;19.166;2023-01-25T14:00:28;15.70;;;7.97;;
75148;SDS011;63724;47.470;19.166;2023-01-25T14:06:45;16.20;;;7.57;;
75148;SDS011;63724;47.470;19.166;2023-01-25T14:09:47;16.27;;;8.55;;
75148;SDS011;63724;47.470;19.166;2023-01-25T14:12:50;20.42;;;9.45;;
75148;SDS011;63724;47.470;19.166;2023-01-25T14:15:58;21.20;;;8.70;;
75148;SDS011;63724;47.470;19.166;2023-01-25T14:19:24;19.75;;;9.38;;
75148;SDS011;63724;47.470;19.166;2023-01-25T14:22:31;16.27;;;8.35;;
75148;SDS011;63724;47.470;19.166;2023-01-25T14:25:34;19.75;;;8.68;;
75148;SDS011;63724;47.470;19.166;2023-01-25T14:28:45;19.77;;;8.35;;
75148;SDS011;63724;47.470;19.166;2023-01-25T14:32:03;20.37;;;9.00;;
75148;SDS011;63724;47.470;19.166;2023-01-25T14:39:24;20.73;;;9.27;;
75148;SDS011;63724;47.470;19.166;2023-01-25T14:42:28;18.52;;;9.10;;
75148;SDS011;63724;47.470;19.166;2023-01-25T14:45:32;18.85;;;8.07;;
75148;SDS011;63724;47.470;19.166;2023-01-25T14:48:37;19.37;;;8.97;;
75148;SDS011;63724;47.470;19.166;2023-01-25T14:51:46;21.60;;;10.05;;
75148;SDS011;63724;47.470;19.166;2023-01-25T14:54:56;22.02;;;10.32;;
75148;SDS011;63724;47.470;19.166;2023-01-25T14:58:02;20.77;;;10.32;;
75148;SDS011;63724;47.470;19.166;2023-01-25T15:01:04;23.17;;;10.63;;
75148;SDS011;63724;47.470;19.166;2023-01-25T15:04:13;23.67;;;10.73;;
75148;SDS011;63724;47.470;19.166;2023-01-25T15:10:53;20.40;;;10.48;;
75148;SDS011;63724;47.470;19.166;2023-01-25T15:14:20;19.05;;;10.18;;
75148;SDS011;63724;47.470;19.166;2023-01-25T15:20:42;18.00;;;8.60;;
75148;SDS011;63724;47.470;19.166;2023-01-25T15:23:47;21.58;;;9.57;;
75148;SDS011;63724;47.470;19.166;2023-01-25T15:26:51;19.42;;;10.27;;
75148;SDS011;63724;47.470;19.166;2023-01-25T15:29:59;20.70;;;11.10;;
75148;SDS011;63724;47.470;19.166;2023-01-25T15:33:01;22.73;;;11.55;;
75148;SDS011;63724;47.470;19.166;2023-01-25T15:36:04;22.60;;;11.07;;
75148;SDS011;63724;47.470;19.166;2023-01-25T15:39:10;19.33;;;9.52;;
75148;SDS011;63724;47.470;19.166;2023-01-25T15:42:14;18.13;;;9.18;;
75148;SDS011;63724;47.470;19.166;2023-01-25T15:45:17;22.80;;;10.35;;
75148;SDS011;63724;47.470;19.166;2023-01-25T15:48:32;17.88;;;8.88;;
75148;SDS011;63724;47.470;19.166;2023-01-25T15:51:36;17.13;;;8.90;;
75148;SDS011;63724;47.470;19.166;2023-01-25T15:54:42;18.13;;;7.93;;
75148;SDS011;63724;47.470;19.166;2023-01-25T15:58:09;12.75;;;7.07;;
75148;SDS011;63724;47.470;19.166;2023-01-25T16:01:15;15.68;;;7.50;;
75148;SDS011;63724;47.470;19.166;2023-01-25T16:04:25;16.05;;;8.63;;
75148;SDS011;63724;47.470;19.166;2023-01-25T16:07:27;21.20;;;9.90;;
75148;SDS011;63724;47.470;19.166;2023-01-25T16:10:31;23.80;;;9.98;;
75148;SDS011;63724;47.470;19.166;2023-01-25T16:13:34;20.98;;;10.15;;
75148;SDS011;63724;47.470;19.166;2023-01-25T16:16:46;19.75;;;10.20;;
75148;SDS011;63724;47.470;19.166;2023-01-25T16:19:53;22.05;;;10.10;;
75148;SDS011;63724;47.470;19.166;2023-01-25T16:23:06;15.27;;;8.33;;
75148;SDS011;63724;47.470;19.166;2023-01-25T16:26:22;17.42;;;8.93;;
75148;SDS011;63724;47.470;19.166;2023-01-25T16:29:27;16.38;;;9.00;;
75148;SDS011;63724;47.470;19.166;2023-01-25T16:32:31;20.92;;;9.85;;
75148;SDS011;63724;47.470;19.166;2023-01-25T16:35:33;20.83;;;10.38;;
75148;SDS011;63724;47.470;19.166;2023-01-25T16:38:36;23.63;;;11.60;;
75148;SDS011;63724;47.470;19.166;2023-01-25T16:41:38;23.30;;;12.13;;
75148;SDS011;63724;47.470;19.166;2023-01-25T16:44:49;33.25;;;15.40;;
75148;SDS011;63724;47.470;19.166;2023-01-25T16:47:51;36.35;;;17.77;;
75148;SDS011;63724;47.470;19.166;2023-01-25T16:50:54;36.33;;;16.83;;
75148;SDS011;63724;47.470;19.166;2023-01-25T16:53:57;37.73;;;17.47;;
75148;SDS011;63724;47.470;19.166;2023-01-25T16:56:59;41.38;;;18.83;;
75148;SDS011;63724;47.470;19.166;2023-01-25T17:00:19;31.63;;;16.20;;
75148;SDS011;63724;47.470;19.166;2023-01-25T17:03:22;30.25;;;15.38;;
75148;SDS011;63724;47.470;19.166;2023-01-25T17:06:27;37.17;;;17.45;;
75148;SDS011;63724;47.470;19.166;2023-01-25T17:09:32;41.70;;;20.07;;
75148;SDS011;63724;47.470;19.166;2023-01-25T17:12:35;37.67;;;19.23;;
75148;SDS011;63724;47.470;19.166;2023-01-25T17:15:37;37.15;;;17.98;;
75148;SDS011;63724;47.470;19.166;2023-01-25T17:18:40;35.80;;;18.05;;
75148;SDS011;63724;47.470;19.166;2023-01-25T17:21:42;37.55;;;17.63;;
75148;SDS011;63724;47.470;19.166;2023-01-25T17:24:45;34.07;;;15.90;;
75148;SDS011;63724;47.470;19.166;2023-01-25T17:27:47;33.65;;;15.43;;
75148;SDS011;63724;47.470;19.166;2023-01-25T17:30:50;28.45;;;14.25;;
75148;SDS011;63724;47.470;19.166;2023-01-25T17:33:55;35.42;;;15.27;;
75148;SDS011;63724;47.470;19.166;2023-01-25T17:36:58;28.52;;;14.57;;
75148;SDS011;63724;47.470;19.166;2023-01-25T17:40:00;32.60;;;15.63;;
75148;SDS011;63724;47.470;19.166;2023-01-25T17:43:03;28.30;;;14.45;;
75148;SDS011;63724;47.470;19.166;2023-01-25T17:46:22;27.58;;;13.85;;
75148;SDS011;63724;47.470;19.166;2023-01-25T17:49:27;27.95;;;14.18;;
75148;SDS011;63724;47.470;19.166;2023-01-25T17:52:31;27.77;;;13.70;;
75148;SDS011;63724;47.470;19.166;2023-01-25T17:55:35;30.07;;;15.27;;
75148;SDS011;63724;47.470;19.166;2023-01-25T17:58:38;29.73;;;13.57;;
75148;SDS011;63724;47.470;19.166;2023-01-25T18:01:41;26.17;;;13.85;;
75148;SDS011;63724;47.470;19.166;2023-01-25T18:04:44;31.33;;;14.00;;
75148;SDS011;63724;47.470;19.166;2023-01-25T18:07:46;24.58;;;12.55;;
75148;SDS011;63724;47.470;19.166;2023-01-25T18:10:48;23.53;;;12.90;;
75148;SDS011;63724;47.470;19.166;2023-01-25T18:13:54;27.80;;;14.82;;
75148;SDS011;63724;47.470;19.166;2023-01-25T18:16:59;28.52;;;14.85;;
75148;SDS011;63724;47.470;19.166;2023-01-25T18:20:02;28.30;;;13.68;;
75148;SDS011;63724;47.470;19.166;2023-01-25T18:23:06;26.65;;;13.80;;
75148;SDS011;63724;47.470;19.166;2023-01-25T18:33:06;28.13;;;13.82;;
75148;SDS011;63724;47.470;19.166;2023-01-25T18:36:15;29.92;;;14.15;;
75148;SDS011;63724;47.470;19.166;2023-01-25T18:39:18;26.58;;;13.15;;
75148;SDS011;63724;47.470;19.166;2023-01-25T18:42:21;30.17;;;13.50;;
75148;SDS011;63724;47.470;19.166;2023-01-25T18:45:24;24.30;;;12.25;;
75148;SDS011;63724;47.470;19.166;2023-01-25T18:48:27;23.92;;;12.93;;
75148;SDS011;63724;47.470;19.166;2023-01-25T18:51:32;30.33;;;14.50;;
75148;SDS011;63724;47.470;19.166;2023-01-25T18:54:45;25.45;;;13.52;;
75148;SDS011;63724;47.470;19.166;2023-01-25T18:57:47;27.93;;;13.60;;
75148;SDS011;63724;47.470;19.166;2023-01-25T19:00:50;29.27;;;14.50;;
75148;SDS011;63724;47.470;19.166;2023-01-25T19:04:02;26.48;;;14.20;;
75148;SDS011;63724;47.470;19.166;2023-01-25T19:07:05;32.97;;;15.45;;
75148;SDS011;63724;47.470;19.166;2023-01-25T19:10:08;35.60;;;17.40;;
75148;SDS011;63724;47.470;19.166;2023-01-25T19:13:11;29.50;;;15.27;;
75148;SDS011;63724;47.470;19.166;2023-01-25T19:16:17;32.88;;;16.33;;
75148;SDS011;63724;47.470;19.166;2023-01-25T19:19:21;28.50;;;14.63;;
75148;SDS011;63724;47.470;19.166;2023-01-25T19:22:24;85.20;;;30.20;;
75148;SDS011;63724;47.470;19.166;2023-01-25T19:25:27;208.57;;;64.43;;
75148;SDS011;63724;47.470;19.166;2023-01-25T19:28:31;79.47;;;28.17;;
75148;SDS011;63724;47.470;19.166;2023-01-25T19:31:35;44.78;;;18.92;;
75148;SDS011;63724;47.470;19.166;2023-01-25T19:34:38;36.90;;;17.73;;
75148;SDS011;63724;47.470;19.166;2023-01-25T19:37:40;39.83;;;18.85;;
75148;SDS011;63724;47.470;19.166;2023-01-25T19:40:43;40.75;;;20.88;;
75148;SDS011;63724;47.470;19.166;2023-01-25T19:43:45;46.80;;;24.80;;
75148;SDS011;63724;47.470;19.166;2023-01-25T19:46:48;44.40;;;23.02;;
75148;SDS011;63724;47.470;19.166;2023-01-25T19:49:50;34.17;;;17.88;;
75148;SDS011;63724;47.470;19.166;2023-01-25T19:52:53;37.10;;;18.98;;
75148;SDS011;63724;47.470;19.166;2023-01-25T19:55:59;33.13;;;17.23;;
75148;SDS011;63724;47.470;19.166;2023-01-25T19:59:03;32.33;;;15.30;;
75148;SDS011;63724;47.470;19.166;2023-01-25T20:02:08;30.33;;;15.77;;
75148;SDS011;63724;47.470;19.166;2023-01-25T20:05:11;31.23;;;14.18;;
75148;SDS011;63724;47.470;19.166;2023-01-25T20:08:14;29.70;;;14.85;;
75148;SDS011;63724;47.470;19.166;2023-01-25T20:11:26;30.20;;;14.30;;
75148;SDS011;63724;47.470;19.166;2023-01-25T20:14:29;34.57;;;14.47;;
75148;SDS011;63724;47.470;19.166;2023-01-25T20:17:33;30.02;;;15.10;;
75148;SDS011;63724;47.470;19.166;2023-01-25T20:20:37;29.63;;;13.77;;
75148;SDS011;63724;47.470;19.166;2023-01-25T20:23:40;26.13;;;14.18;;